Time;durP1;ratioP1;P1;durP2;ratioP2;P2;SDS_P1;SDS_P2;PMS_P1;PMS_P2;Temp;Humidity;BMP_temperature;BMP_pressure;BME280_temperature;BME280_humidity;BME280_pressure;Samples;Min_cycle;Max_cycle;Signal;HPM_P1;HPM_P2
2022/04/14 00:01:16;;;;;;;15.18;11.20;;;11.40;99.90;;;;;;5147401;27;20034;-72
2022/04/14 00:03:42;;;;;;;17.98;11.52;;;11.40;99.90;;;;;;5147718;27;20047;-72
2022/04/14 00:06:07;;;;;;;16.20;11.32;;;11.40;99.90;;;;;;5163853;27;20088;-72
2022/04/14 00:08:33;;;;;;;15.30;10.32;;;11.50;99.90;;;;;;5137654;28;20057;-72
2022/04/14 00:10:59;;;;;;;17.05;10.82;;;11.40;99.90;;;;;;5145137;27;20725;-72
2022/04/14 00:13:25;;;;;;;18.70;12.07;;;11.50;99.90;;;;;;5147625;27;20074;-72
2022/04/14 00:15:50;;;;;;;15.38;11.15;;;11.50;99.90;;;;;;5146998;27;20053;-72
2022/04/14 00:18:16;;;;;;;19.67;12.02;;;11.50;99.90;;;;;;5148411;27;20113;-72
2022/04/14 00:20:42;;;;;;;16.13;10.88;;;11.50;99.90;;;;;;5135601;27;20054;-72
2022/04/14 00:23:08;;;;;;;18.98;11.98;;;11.50;99.90;;;;;;5147436;27;20039;-72
2022/04/14 00:25:34;;;;;;;17.20;10.77;;;11.60;99.90;;;;;;5165883;27;20038;-72
2022/04/14 00:28:00;;;;;;;17.55;10.43;;;11.50;99.90;;;;;;5141764;27;20126;-72
2022/04/14 00:30:26;;;;;;;15.90;10.75;;;11.60;99.90;;;;;;5147563;27;20050;-72
2022/04/14 00:32:52;;;;;;;14.13;10.13;;;11.50;99.90;;;;;;5132038;27;20031;-72
2022/04/14 00:35:18;;;;;;;15.27;10.07;;;11.60;99.90;;;;;;5151111;27;20052;-72
2022/04/14 00:37:43;;;;;;;17.90;10.45;;;11.50;99.90;;;;;;5107974;27;20047;-72
2022/04/14 00:40:10;;;;;;;14.93;9.18;;;11.70;99.90;;;;;;5149421;27;20043;-72
2022/04/14 00:42:35;;;;;;;14.15;10.88;;;11.70;99.90;;;;;;5142868;27;20039;-72
2022/04/14 00:45:01;;;;;;;16.05;10.10;;;11.70;99.90;;;;;;5148961;27;20051;-72
2022/04/14 00:47:29;;;;;;;13.40;9.60;;;11.70;99.90;;;;;;5150940;27;20250;-72
2022/04/14 00:49:56;;;;;;;12.02;8.80;;;11.60;99.90;;;;;;5169317;27;20067;-72
2022/04/14 00:52:22;;;;;;;17.83;10.57;;;11.60;99.90;;;;;;5150687;27;20050;-72
2022/04/14 00:54:48;;;;;;;19.25;10.70;;;11.60;99.90;;;;;;5133221;27;20038;-72
2022/04/14 00:57:14;;;;;;;14.98;10.20;;;11.50;99.90;;;;;;5150084;27;20054;-71
2022/04/14 00:59:42;;;;;;;18.88;11.23;;;11.30;99.90;;;;;;5146856;27;20050;-71
2022/04/14 01:02:08;;;;;;;13.82;9.23;;;11.20;99.90;;;;;;5147031;27;20551;-71
2022/04/14 01:04:35;;;;;;;16.42;9.23;;;11.20;99.90;;;;;;5147976;27;20517;-71
2022/04/14 01:07:01;;;;;;;16.52;9.90;;;11.00;99.90;;;;;;5169216;27;20057;-72
2022/04/14 01:09:29;;;;;;;14.82;11.55;;;11.00;99.90;;;;;;5151140;27;20043;-72
2022/04/14 01:11:55;;;;;;;17.15;10.43;;;10.90;99.90;;;;;;5144049;27;20559;-72
2022/04/14 01:14:32;;;;;;;16.63;10.45;;;10.90;99.90;;;;;;5150874;27;20432;-72
2022/04/14 01:17:00;;;;;;;16.00;10.30;;;10.80;99.90;;;;;;5150412;27;20053;-72
2022/04/14 01:19:27;;;;;;;15.15;10.60;;;10.60;99.90;;;;;;5133254;27;20039;-72
2022/04/14 01:21:56;;;;;;;15.82;10.73;;;10.60;99.90;;;;;;5135039;27;20054;-72
2022/04/14 01:24:22;;;;;;;16.60;11.18;;;10.60;99.90;;;;;;5158323;27;20043;-72
2022/04/14 01:26:48;;;;;;;15.70;11.43;;;10.70;99.90;;;;;;5150972;27;20050;-72
2022/04/14 01:29:25;;;;;;;16.50;11.02;;;10.40;99.90;;;;;;5163758;27;20446;-72
2022/04/14 01:31:51;;;;;;;16.10;10.90;;;10.40;99.90;;;;;;5133194;27;20047;-72
2022/04/14 01:34:17;;;;;;;15.02;10.90;;;10.40;99.90;;;;;;5166977;27;20035;-72
2022/04/14 01:36:43;;;;;;;16.52;10.90;;;10.30;99.90;;;;;;5151938;27;20050;-72
2022/04/14 01:39:10;;;;;;;16.60;11.48;;;10.20;99.90;;;;;;5149486;27;20057;-72
2022/04/14 01:41:40;;;;;;;16.20;11.90;;;10.20;99.90;;;;;;5145359;27;20046;-72
2022/04/14 01:44:06;;;;;;;17.38;12.43;;;10.20;99.90;;;;;;5147547;27;20046;-72
2022/04/14 01:46:32;;;;;;;19.15;13.27;;;10.20;99.90;;;;;;5139818;27;20819;-72
2022/04/14 01:49:01;;;;;;;20.23;14.02;;;10.10;99.90;;;;;;5147091;27;20078;-72
2022/04/14 01:51:27;;;;;;;19.88;13.55;;;10.10;99.90;;;;;;5140759;27;20043;-72
2022/04/14 01:53:53;;;;;;;22.20;15.45;;;10.10;99.90;;;;;;5141535;27;20095;-72
2022/04/14 01:56:21;;;;;;;20.70;13.82;;;10.20;99.90;;;;;;5148241;27;20050;-72
2022/04/14 01:58:47;;;;;;;22.73;14.75;;;10.10;99.90;;;;;;5149395;27;20114;-72
2022/04/14 02:01:13;;;;;;;21.25;14.52;;;10.00;99.90;;;;;;5150027;27;20054;-72
2022/04/14 02:03:39;;;;;;;24.05;14.68;;;10.10;99.90;;;;;;5150022;27;20122;-72
2022/04/14 02:06:05;;;;;;;23.23;15.20;;;10.10;99.90;;;;;;5147634;27;20042;-72
2022/04/14 02:08:30;;;;;;;21.83;14.68;;;10.10;99.90;;;;;;5131871;27;20046;-72
2022/04/14 02:10:56;;;;;;;20.33;14.48;;;10.10;99.90;;;;;;5137762;27;20050;-72
2022/04/14 02:13:21;;;;;;;23.30;14.85;;;10.00;99.90;;;;;;5148959;27;20044;-72
2022/04/14 02:15:47;;;;;;;23.17;14.68;;;10.00;99.90;;;;;;5149217;27;20055;-72
2022/04/14 02:18:13;;;;;;;20.58;13.98;;;9.90;99.90;;;;;;5148780;27;20047;-72
2022/04/14 02:20:39;;;;;;;19.33;13.73;;;9.90;99.90;;;;;;5149841;27;20083;-72
2022/04/14 02:23:04;;;;;;;18.60;13.43;;;9.80;99.90;;;;;;5149296;27;20046;-72
2022/04/14 02:25:30;;;;;;;18.13;14.98;;;9.70;99.90;;;;;;5147814;27;20534;-72
2022/04/14 02:27:56;;;;;;;19.48;13.73;;;9.70;99.90;;;;;;5148523;27;20077;-72
2022/04/14 02:30:22;;;;;;;16.48;13.60;;;9.70;99.90;;;;;;5148960;27;20046;-72
2022/04/14 02:32:48;;;;;;;22.17;16.00;;;9.60;99.90;;;;;;5148432;27;20074;-72
2022/04/14 02:35:14;;;;;;;20.55;15.38;;;9.50;99.90;;;;;;5129196;27;20039;-72
2022/04/14 02:37:40;;;;;;;26.08;16.08;;;9.50;99.90;;;;;;5166925;27;20042;-72
2022/04/14 02:40:06;;;;;;;23.67;15.57;;;9.70;99.90;;;;;;5167498;27;20079;-72
2022/04/14 02:42:32;;;;;;;25.40;16.17;;;9.60;99.90;;;;;;5149061;27;20054;-72
2022/04/14 02:44:58;;;;;;;26.77;17.83;;;9.60;99.90;;;;;;5149243;27;20055;-72
2022/04/14 02:47:24;;;;;;;22.90;16.63;;;9.50;99.90;;;;;;5149475;27;20062;-72
2022/04/14 02:49:49;;;;;;;28.48;18.20;;;9.60;99.90;;;;;;5131453;27;20042;-72
2022/04/14 02:52:15;;;;;;;26.02;16.52;;;9.60;99.90;;;;;;5148352;27;20098;-72
2022/04/14 02:54:41;;;;;;;25.80;18.25;;;9.70;99.90;;;;;;5110907;27;20047;-72
2022/04/14 02:57:08;;;;;;;24.02;17.67;;;9.90;99.90;;;;;;5166564;27;20038;-72
2022/04/14 02:59:34;;;;;;;24.30;16.52;;;9.90;99.90;;;;;;5148204;27;20043;-72
2022/04/14 03:02:00;;;;;;;24.00;18.00;;;10.00;99.90;;;;;;5144508;27;20050;-72
2022/04/14 03:04:29;;;;;;;25.17;17.58;;;9.90;99.90;;;;;;5148723;27;20050;-72
2022/04/14 03:06:55;;;;;;;25.40;18.85;;;9.80;99.90;;;;;;5167272;27;20054;-72
2022/04/14 03:09:21;;;;;;;24.13;17.92;;;9.80;99.90;;;;;;5145107;27;20050;-72
2022/04/14 03:11:46;;;;;;;26.35;18.40;;;9.90;99.90;;;;;;5147947;27;20081;-72
2022/04/14 03:14:12;;;;;;;24.40;17.65;;;9.60;99.90;;;;;;5147625;27;20043;-72
2022/04/14 03:16:38;;;;;;;27.65;19.77;;;9.70;99.90;;;;;;5152306;27;20042;-72
2022/04/14 03:19:03;;;;;;;25.90;18.85;;;9.50;99.90;;;;;;5148366;27;20042;-72
2022/04/14 03:21:29;;;;;;;28.83;19.35;;;9.50;99.90;;;;;;5148158;27;20142;-72
2022/04/14 03:23:55;;;;;;;28.92;20.60;;;9.50;99.90;;;;;;5147984;27;20043;-72
2022/04/14 03:26:21;;;;;;;29.85;21.35;;;9.30;99.90;;;;;;5122051;27;20051;-72
2022/04/14 03:28:46;;;;;;;32.70;21.10;;;9.40;99.90;;;;;;5144319;27;20047;-72
2022/04/14 03:31:12;;;;;;;32.60;21.48;;;9.30;99.90;;;;;;5144087;27;20051;-72
2022/04/14 03:33:38;;;;;;;35.58;23.63;;;9.30;99.90;;;;;;5148461;27;20039;-72
2022/04/14 03:36:04;;;;;;;35.58;23.85;;;9.40;99.90;;;;;;5148260;27;20045;-72
2022/04/14 03:38:31;;;;;;;32.47;23.10;;;9.50;99.90;;;;;;5115271;27;20042;-72
2022/04/14 03:40:57;;;;;;;37.20;23.83;;;9.40;99.90;;;;;;5137509;27;20096;-72
2022/04/14 03:43:22;;;;;;;34.05;22.83;;;9.40;99.90;;;;;;5148186;27;20039;-72
2022/04/14 03:45:48;;;;;;;36.92;23.67;;;9.40;99.90;;;;;;5148779;27;20532;-72
2022/04/14 03:48:14;;;;;;;30.20;21.67;;;9.30;99.90;;;;;;5131242;27;20074;-72
2022/04/14 03:50:40;;;;;;;33.65;22.88;;;9.30;99.90;;;;;;5146914;27;20055;-72
2022/04/14 03:53:06;;;;;;;35.05;23.15;;;9.40;99.90;;;;;;5147513;27;20070;-72
2022/04/14 03:55:31;;;;;;;32.08;23.55;;;9.30;99.90;;;;;;5147587;27;20054;-72
2022/04/14 03:57:57;;;;;;;33.60;23.27;;;9.40;99.90;;;;;;5147134;27;20066;-72
2022/04/14 04:00:23;;;;;;;31.55;21.63;;;9.20;99.90;;;;;;5148139;27;20091;-72
2022/04/14 04:02:48;;;;;;;31.85;22.42;;;9.20;99.90;;;;;;5138117;28;20049;-72
2022/04/14 04:05:14;;;;;;;29.80;21.52;;;9.10;99.90;;;;;;5138470;27;20114;-72
2022/04/14 04:07:40;;;;;;;25.83;20.35;;;9.00;99.90;;;;;;5161198;27;20047;-72
2022/04/14 04:10:06;;;;;;;29.63;21.60;;;8.90;99.90;;;;;;5134377;27;20057;-72
2022/04/14 04:12:32;;;;;;;30.27;20.30;;;8.90;99.90;;;;;;5150261;27;20080;-72
2022/04/14 04:14:58;;;;;;;32.75;20.00;;;8.80;99.90;;;;;;5135258;27;20055;-72
2022/04/14 04:17:23;;;;;;;31.17;21.85;;;8.90;99.90;;;;;;5170503;27;20094;-71
2022/04/14 04:19:49;;;;;;;30.17;22.27;;;9.10;99.90;;;;;;5151753;27;20050;-72
2022/04/14 04:22:15;;;;;;;25.13;18.17;;;8.90;99.90;;;;;;5151913;27;20038;-72
2022/04/14 04:24:41;;;;;;;23.70;19.70;;;8.80;99.90;;;;;;5151698;27;20064;-72
2022/04/14 04:27:07;;;;;;;27.17;18.63;;;8.70;99.90;;;;;;5169312;27;20050;-72
2022/04/14 04:29:33;;;;;;;22.05;17.30;;;8.70;99.90;;;;;;5124322;27;20097;-72
2022/04/14 04:31:59;;;;;;;32.72;21.88;;;8.70;99.90;;;;;;5149263;27;20047;-72
2022/04/14 04:34:24;;;;;;;32.03;22.17;;;8.70;99.90;;;;;;5144118;27;20046;-72
2022/04/14 04:36:50;;;;;;;22.33;16.50;;;8.90;99.90;;;;;;5151287;27;20054;-72
2022/04/14 04:39:17;;;;;;;48.10;19.63;;;8.60;99.90;;;;;;5134010;27;20053;-74
2022/04/14 04:41:43;;;;;;;25.52;19.08;;;8.60;99.90;;;;;;5127496;27;20167;-71
2022/04/14 04:44:09;;;;;;;19.02;14.60;;;8.40;99.90;;;;;;5148673;27;20073;-70
2022/04/14 04:46:35;;;;;;;23.27;17.40;;;8.50;99.90;;;;;;5168343;27;20047;-75
2022/04/14 04:49:01;;;;;;;29.27;20.95;;;8.50;99.90;;;;;;5168836;27;20062;-73
2022/04/14 04:51:27;;;;;;;28.85;21.58;;;8.50;99.90;;;;;;5172326;27;20051;-72
2022/04/14 04:53:53;;;;;;;31.23;22.20;;;8.60;99.90;;;;;;5149671;27;20142;-74
2022/04/14 04:56:19;;;;;;;30.70;21.65;;;8.60;99.90;;;;;;5139959;27;20043;-72
2022/04/14 04:58:45;;;;;;;32.20;22.30;;;8.60;99.90;;;;;;5140897;27;20062;-71
2022/04/14 05:01:12;;;;;;;28.75;22.13;;;8.60;99.90;;;;;;5137473;27;20039;-71
2022/04/14 05:03:38;;;;;;;36.35;25.52;;;8.50;99.90;;;;;;5126738;27;20042;-71
2022/04/14 05:06:04;;;;;;;38.97;25.85;;;8.60;99.90;;;;;;5166384;27;20035;-71
2022/04/14 05:08:32;;;;;;;46.33;30.85;;;8.60;99.90;;;;;;5164696;27;20054;-71
2022/04/14 05:10:58;;;;;;;37.53;27.20;;;8.80;99.90;;;;;;5147282;27;20482;-73
2022/04/14 05:13:23;;;;;;;44.55;27.92;;;8.80;99.90;;;;;;5136538;27;20087;-73
2022/04/14 05:15:49;;;;;;;45.08;28.50;;;8.80;99.90;;;;;;5162777;27;20041;-74
2022/04/14 05:18:15;;;;;;;43.55;29.23;;;8.80;99.90;;;;;;5148250;27;20050;-74
2022/04/14 05:20:42;;;;;;;45.97;29.58;;;8.80;99.90;;;;;;5148926;27;20046;-73
2022/04/14 05:23:11;;;;;;;49.42;31.48;;;8.80;99.90;;;;;;5128942;27;20095;-75
2022/04/14 05:25:40;;;;;;;50.25;29.98;;;8.60;99.90;;;;;;5152436;27;20085;-72
2022/04/14 05:28:06;;;;;;;49.22;31.00;;;8.60;99.90;;;;;;5142529;27;20156;-73
2022/04/14 05:30:32;;;;;;;45.95;30.25;;;8.60;99.90;;;;;;5134963;27;20078;-72
2022/04/14 05:32:58;;;;;;;43.05;28.58;;;8.70;99.90;;;;;;5114122;27;20042;-73
2022/04/14 05:35:24;;;;;;;39.38;25.83;;;8.70;99.90;;;;;;5127352;27;20146;-73
2022/04/14 05:37:49;;;;;;;34.10;23.75;;;8.40;99.90;;;;;;5143781;27;20319;-73
2022/04/14 05:40:15;;;;;;;33.20;22.92;;;8.50;99.90;;;;;;5113161;27;20055;-73
2022/04/14 05:42:46;;;;;;;33.33;24.38;;;8.40;99.90;;;;;;5141295;27;20104;-73
2022/04/14 05:45:13;;;;;;;35.92;23.75;;;8.40;99.90;;;;;;5133032;27;20047;-73
2022/04/14 05:47:39;;;;;;;41.38;26.45;;;8.20;99.90;;;;;;5140208;27;20085;-73
2022/04/14 05:50:05;;;;;;;45.95;29.48;;;8.30;99.90;;;;;;5130476;27;20043;-72
2022/04/14 05:52:31;;;;;;;42.67;29.40;;;8.30;99.90;;;;;;5120424;27;20489;-72
2022/04/14 05:55:01;;;;;;;48.97;30.30;;;8.40;99.90;;;;;;5116990;27;20044;-69
2022/04/14 05:57:28;;;;;;;53.90;33.13;;;8.60;99.90;;;;;;5115773;27;20043;-72
2022/04/14 05:59:53;;;;;;;53.03;34.80;;;8.70;99.90;;;;;;5112127;27;20047;-72
2022/04/14 06:02:19;;;;;;;66.13;38.30;;;8.80;99.90;;;;;;5120527;27;20339;-69
2022/04/14 06:04:45;;;;;;;65.03;38.17;;;9.00;99.90;;;;;;5112252;27;20047;-71
2022/04/14 06:07:10;;;;;;;55.75;36.65;;;9.10;99.90;;;;;;5118049;27;20043;-71
2022/04/14 06:09:36;;;;;;;59.30;37.58;;;9.20;99.90;;;;;;5109680;27;20278;-71
2022/04/14 06:12:02;;;;;;;53.67;36.63;;;9.40;99.90;;;;;;5122235;27;20564;-71
2022/04/14 06:14:30;;;;;;;54.92;37.30;;;9.40;99.90;;;;;;5093616;27;20150;-71
2022/04/14 06:16:56;;;;;;;57.22;38.47;;;9.60;99.90;;;;;;5119667;27;20039;-73
2022/04/14 06:19:22;;;;;;;64.25;40.67;;;9.50;99.90;;;;;;5105374;27;20057;-71
2022/04/14 06:21:47;;;;;;;63.28;40.30;;;9.70;99.90;;;;;;5121500;27;20092;-71
2022/04/14 06:24:13;;;;;;;59.38;38.13;;;9.80;99.90;;;;;;5106893;27;20149;-71
2022/04/14 06:26:39;;;;;;;68.85;41.38;;;9.80;99.90;;;;;;5089420;27;20050;-70
2022/04/14 06:29:05;;;;;;;65.95;41.78;;;9.90;99.90;;;;;;5102731;27;20043;-70
2022/04/14 06:31:31;;;;;;;65.07;38.75;;;10.00;99.90;;;;;;5119837;27;20039;-70
2022/04/14 06:33:57;;;;;;;60.80;39.65;;;10.10;99.90;;;;;;5124309;27;20043;-70
2022/04/14 06:36:22;;;;;;;62.67;39.40;;;10.10;99.90;;;;;;5118891;27;20122;-70
2022/04/14 06:38:48;;;;;;;63.83;41.10;;;10.20;99.90;;;;;;5137124;27;20359;-70
2022/04/14 06:41:13;;;;;;;59.17;39.55;;;10.20;99.90;;;;;;5097221;27;20079;-70
2022/04/14 06:43:39;;;;;;;66.68;41.00;;;10.20;99.90;;;;;;5119425;27;20047;-73
2022/04/14 06:46:05;;;;;;;60.53;38.65;;;10.40;99.90;;;;;;5110202;27;20054;-71
2022/04/14 06:48:31;;;;;;;63.15;41.05;;;10.50;99.90;;;;;;5114227;27;20043;-71
2022/04/14 06:51:01;;;;;;;57.30;38.15;;;10.50;99.90;;;;;;5101649;27;20054;-71
2022/04/14 06:53:27;;;;;;;61.63;38.00;;;10.60;99.90;;;;;;5109779;27;20141;-71
2022/04/14 06:55:53;;;;;;;62.85;39.58;;;10.70;99.90;;;;;;5098507;27;20064;-71
2022/04/14 06:58:20;;;;;;;55.80;37.65;;;10.70;99.90;;;;;;5118421;27;20059;-71
2022/04/14 07:00:46;;;;;;;60.55;40.10;;;10.90;99.90;;;;;;5126640;27;20051;-71
2022/04/14 07:03:12;;;;;;;60.38;38.33;;;10.90;99.90;;;;;;5115748;27;20531;-71
2022/04/14 07:05:38;;;;;;;66.22;38.70;;;11.00;99.90;;;;;;5126372;27;20047;-71
2022/04/14 07:08:04;;;;;;;60.70;38.05;;;11.00;99.90;;;;;;5119607;27;20046;-71
2022/04/14 07:10:29;;;;;;;61.72;37.05;;;11.10;99.90;;;;;;5110765;27;20227;-71
2022/04/14 07:12:55;;;;;;;52.58;34.28;;;11.10;99.90;;;;;;5118258;27;20103;-71
2022/04/14 07:15:22;;;;;;;51.92;32.72;;;11.20;99.90;;;;;;5108105;27;20098;-71
2022/04/14 07:17:47;;;;;;;56.15;33.67;;;11.40;99.90;;;;;;5100988;27;20335;-70
2022/04/14 07:20:13;;;;;;;50.08;32.83;;;11.50;99.90;;;;;;5107759;27;20051;-71
2022/04/14 07:22:50;;;;;;;46.40;32.13;;;11.60;99.90;;;;;;5118182;27;20055;-71
2022/04/14 07:25:16;;;;;;;52.90;32.30;;;11.70;99.90;;;;;;5109925;27;20372;-71
2022/04/14 07:27:43;;;;;;;49.83;31.08;;;11.70;99.90;;;;;;5139215;27;20482;-70
2022/04/14 07:30:10;;;;;;;41.33;29.10;;;11.80;99.90;;;;;;5086944;27;20455;-70
2022/04/14 07:32:38;;;;;;;40.13;26.83;;;11.90;99.90;;;;;;5116962;27;20131;-70
2022/04/14 07:35:05;;;;;;;40.63;27.50;;;12.00;99.90;;;;;;5115178;27;20047;-69
2022/04/14 07:37:31;;;;;;;40.78;27.30;;;12.00;99.90;;;;;;5107350;27;20057;-68
2022/04/14 07:39:57;;;;;;;38.17;26.65;;;12.20;99.90;;;;;;5110232;27;20061;-68
2022/04/14 07:42:31;;;;;;;40.45;28.60;;;12.20;99.90;;;;;;5102124;27;20495;-68
2022/04/14 07:44:57;;;;;;;41.28;28.60;;;12.40;99.90;;;;;;5124118;27;20041;-69
2022/04/14 07:47:23;;;;;;;39.78;28.05;;;12.50;99.90;;;;;;5138405;27;20129;-68
2022/04/14 07:49:49;;;;;;;35.30;25.30;;;12.50;99.90;;;;;;5131876;27;20052;-68
2022/04/14 07:52:15;;;;;;;37.55;24.90;;;12.60;99.90;;;;;;5141005;27;20074;-68
2022/04/14 07:54:40;;;;;;;31.90;23.48;;;12.70;99.90;;;;;;5129880;27;20043;-68
2022/04/14 07:57:06;;;;;;;35.55;23.75;;;12.70;99.90;;;;;;5139453;27;20049;-68
2022/04/14 07:59:32;;;;;;;31.75;22.83;;;12.80;99.90;;;;;;5113823;27;20147;-68
2022/04/14 08:02:00;;;;;;;34.53;24.15;;;13.00;99.90;;;;;;5141218;27;20066;-68
2022/04/14 08:04:30;;;;;;;32.83;22.88;;;13.00;99.90;;;;;;5124727;27;20042;-68
2022/04/14 08:06:56;;;;;;;29.88;22.10;;;13.10;99.90;;;;;;5115846;27;20039;-69
2022/04/14 08:09:22;;;;;;;30.75;23.10;;;13.20;99.90;;;;;;5117918;27;20089;-68
2022/04/14 08:11:48;;;;;;;30.77;22.17;;;13.20;99.90;;;;;;5133321;27;20031;-68
2022/04/14 08:14:13;;;;;;;31.85;22.40;;;13.30;99.90;;;;;;5105975;27;20065;-69
2022/04/14 08:16:39;;;;;;;27.33;20.58;;;13.30;99.90;;;;;;5112989;28;20082;-68
2022/04/14 08:19:05;;;;;;;27.85;20.65;;;13.40;99.90;;;;;;5120134;27;20054;-68
2022/04/14 08:21:31;;;;;;;28.88;20.77;;;13.40;99.90;;;;;;5096919;27;20610;-68
2022/04/14 08:23:58;;;;;;;24.20;19.83;;;13.40;99.90;;;;;;5156176;27;20043;-69
2022/04/14 08:26:26;;;;;;;24.98;18.50;;;13.60;99.90;;;;;;5119074;27;20051;-70
2022/04/14 08:28:53;;;;;;;21.95;18.15;;;13.60;99.90;;;;;;5131830;27;20103;-71
2022/04/14 08:31:21;;;;;;;23.20;17.13;;;13.70;99.90;;;;;;5094801;27;20127;-71
2022/04/14 08:33:48;;;;;;;22.45;17.30;;;13.80;99.90;;;;;;5152237;27;20039;-71
2022/04/14 08:36:15;;;;;;;21.13;16.33;;;13.80;99.90;;;;;;5133820;27;20122;-71
2022/04/14 08:38:43;;;;;;;24.13;17.60;;;13.90;99.90;;;;;;5158256;27;20031;-71
2022/04/14 08:41:13;;;;;;;21.98;17.20;;;14.00;99.90;;;;;;5125780;27;20051;-69
2022/04/14 08:44:02;;;;;;;24.98;18.00;;;14.20;99.90;;;;;;5153678;27;20090;-71
2022/04/14 08:46:29;;;;;;;23.40;17.27;;;14.20;99.90;;;;;;5121670;27;20167;-71
2022/04/14 08:48:59;;;;;;;21.40;16.50;;;14.20;99.90;;;;;;5118063;28;20035;-71
2022/04/14 08:51:35;;;;;;;19.15;15.57;;;14.30;99.90;;;;;;5107279;28;20074;-71
2022/04/14 08:54:02;;;;;;;21.35;16.25;;;14.40;99.90;;;;;;5121538;27;20600;-71
2022/04/14 08:56:28;;;;;;;17.70;15.25;;;14.40;99.90;;;;;;5111626;27;20090;-71
2022/04/14 08:58:55;;;;;;;22.10;16.00;;;14.50;99.90;;;;;;5103567;27;20049;-71
2022/04/14 09:01:25;;;;;;;20.70;15.77;;;14.50;99.90;;;;;;5111648;27;20238;-71
2022/04/14 09:03:57;;;;;;;;;;;14.60;99.90;;;;;;5114553;27;20043;-71
2022/04/14 09:06:27;;;;;;;22.30;17.33;;;14.70;99.90;;;;;;5111351;27;19923;-70
2022/04/14 09:08:53;;;;;;;21.67;15.00;;;14.70;99.90;;;;;;5121231;27;20054;-71
2022/04/14 09:11:19;;;;;;;23.83;16.27;;;14.90;99.90;;;;;;5093397;27;20055;-71
2022/04/14 09:13:45;;;;;;;20.35;15.80;;;14.80;99.90;;;;;;5123101;27;20106;-71
2022/04/14 09:16:11;;;;;;;20.98;16.85;;;14.90;99.90;;;;;;5130058;27;20076;-71
2022/04/14 09:18:37;;;;;;;20.77;15.73;;;14.90;99.90;;;;;;5116516;27;20422;-71
2022/04/14 09:21:04;;;;;;;22.23;17.40;;;15.10;99.90;;;;;;5110045;27;20435;-71
2022/04/14 09:23:31;;;;;;;22.60;16.90;;;15.10;99.90;;;;;;5119930;27;20451;-71
2022/04/14 09:26:02;;;;;;;19.33;15.70;;;15.10;99.90;;;;;;5114543;27;20071;-71
2022/04/14 09:28:29;;;;;;;21.58;16.85;;;15.30;99.90;;;;;;5130227;27;20047;-71
2022/04/14 09:31:09;;;;;;;20.88;17.58;;;15.40;99.90;;;;;;5100196;27;20078;-71
2022/04/14 09:33:46;;;;;;;20.23;15.60;;;15.40;99.90;;;;;;5118790;27;20047;-71
2022/04/14 09:36:23;;;;;;;18.65;16.48;;;15.40;99.90;;;;;;5110621;27;20402;-71
2022/04/14 09:38:58;;;;;;;23.83;16.10;;;15.50;99.90;;;;;;5101148;28;20054;-71
2022/04/14 09:41:30;;;;;;;20.42;16.15;;;15.60;99.90;;;;;;5093929;27;20050;-71
2022/04/14 09:43:58;;;;;;;17.80;14.90;;;15.80;99.90;;;;;;5134426;27;20377;-71
2022/04/14 09:46:24;;;;;;;19.85;16.30;;;15.80;99.90;;;;;;5123225;27;20051;-71
2022/04/14 09:49:07;;;;;;;20.15;15.40;;;15.90;99.90;;;;;;5101222;28;20055;-71
2022/04/14 09:51:35;;;;;;;18.00;14.90;;;15.90;99.90;;;;;;5090647;28;20051;-71
2022/04/14 09:54:12;;;;;;;19.65;15.00;;;16.00;99.90;;;;;;5110939;27;20146;-71
2022/04/14 09:56:56;;;;;;;19.10;16.88;;;16.10;99.90;;;;;;5102340;28;20047;-71
2022/04/14 09:59:28;;;;;;;20.08;15.25;;;16.20;99.90;;;;;;5110905;28;20054;-71
2022/04/14 10:02:12;;;;;;;18.73;14.55;;;16.10;99.90;;;;;;5106925;27;20079;-68
2022/04/14 10:04:48;;;;;;;18.05;14.98;;;16.20;99.90;;;;;;5103940;28;20090;-69
2022/04/14 10:07:19;;;;;;;16.25;14.07;;;16.20;99.90;;;;;;5102942;27;20056;-68
2022/04/14 10:09:48;;;;;;;17.90;14.13;;;16.20;99.90;;;;;;5091589;27;20099;-68
2022/04/14 10:12:20;;;;;;;16.63;13.80;;;16.30;99.90;;;;;;5107068;27;20039;-68
2022/04/14 10:15:03;;;;;;;16.10;14.30;;;16.50;99.90;;;;;;5103279;27;20036;-69
2022/04/14 10:17:35;;;;;;;18.67;15.18;;;16.40;99.90;;;;;;5111990;27;20533;-68
2022/04/14 10:20:03;;;;;;;16.00;13.30;;;16.40;99.90;;;;;;5107008;27;20060;-68
2022/04/14 10:22:29;;;;;;;17.45;13.90;;;16.50;99.90;;;;;;5119772;27;20110;-68
2022/04/14 10:24:56;;;;;;;17.20;13.57;;;16.50;99.90;;;;;;5091900;27;20039;-68
2022/04/14 10:27:22;;;;;;;15.05;12.18;;;16.40;99.90;;;;;;5120057;27;20096;-68
2022/04/14 10:29:49;;;;;;;15.75;12.02;;;16.40;99.90;;;;;;5099920;27;20043;-69
2022/04/14 10:32:16;;;;;;;13.63;10.73;;;16.60;99.90;;;;;;5107066;27;20047;-68
2022/04/14 10:34:42;;;;;;;12.45;10.07;;;16.40;99.90;;;;;;5119592;27;20062;-68
2022/04/14 10:37:08;;;;;;;13.85;11.13;;;16.30;99.90;;;;;;5128127;27;20426;-69
2022/04/14 10:39:42;;;;;;;16.05;12.15;;;16.30;99.90;;;;;;5122293;27;20107;-68
2022/04/14 10:42:10;;;;;;;18.02;11.05;;;16.50;99.90;;;;;;5092559;27;20538;-68
2022/04/14 10:44:47;;;;;;;17.08;10.27;;;16.80;99.90;;;;;;5119340;27;20074;-69
2022/04/14 10:47:44;;;;;;;13.93;10.68;;;16.80;99.90;;;;;;5092647;27;20387;-67
2022/04/14 10:50:23;;;;;;;15.23;11.45;;;17.10;99.90;;;;;;5111046;27;20055;-66
2022/04/14 10:53:20;;;;;;;12.07;9.70;;;17.30;99.90;;;;;;5119128;27;20069;-69
2022/04/14 10:55:50;;;;;;;12.63;9.55;;;17.40;99.90;;;;;;5075535;28;20055;-69
2022/04/14 10:58:38;;;;;;;10.93;8.82;;;17.30;99.90;;;;;;5104587;27;20047;-68
2022/04/14 11:01:05;;;;;;;12.32;8.23;;;17.20;99.90;;;;;;5091645;27;20100;-69
2022/04/14 11:03:44;;;;;;;10.45;8.50;;;17.10;99.90;;;;;;5099442;28;20550;-69
2022/04/14 11:06:10;;;;;;;10.65;8.75;;;17.10;99.90;;;;;;5111308;27;20088;-68
2022/04/14 11:08:46;;;;;;;10.50;8.25;;;17.20;99.90;;;;;;5115771;28;20047;-69
2022/04/14 11:11:14;;;;;;;11.25;8.90;;;17.30;99.90;;;;;;5108395;27;20194;-69
2022/04/14 11:13:55;;;;;;;12.43;9.75;;;17.50;99.90;;;;;;5098559;28;20058;-69
2022/04/14 11:16:50;;;;;;;10.05;7.93;;;17.60;99.90;;;;;;5108670;27;20062;-69
2022/04/14 11:19:18;;;;;;;10.35;6.57;;;17.80;99.90;;;;;;5101241;27;20100;-69
2022/04/14 11:22:02;;;;;;;8.35;5.97;;;17.40;99.90;;;;;;5064854;28;20059;-69
2022/04/14 11:24:37;;;;;;;10.80;7.13;;;17.50;99.90;;;;;;5117957;27;20104;-69
2022/04/14 11:27:15;;;;;;;11.35;7.15;;;17.40;99.90;;;;;;5090616;27;20059;-69
2022/04/14 11:29:47;;;;;;;10.15;7.28;;;17.60;99.90;;;;;;5108096;27;20107;-69
2022/04/14 11:32:14;;;;;;;7.57;5.53;;;17.70;99.90;;;;;;5108341;27;20043;-68
2022/04/14 11:34:40;;;;;;;9.02;5.00;;;18.00;99.90;;;;;;5115969;27;20134;-69
2022/04/14 11:37:44;;;;;;;30.40;7.22;;;18.00;99.90;;;;;;5116983;27;20051;-69
2022/04/14 11:40:23;;;;;;;7.90;5.75;;;18.40;99.90;;;;;;5089261;27;20070;-69
2022/04/14 11:42:54;;;;;;;11.48;5.40;;;18.40;99.90;;;;;;5101475;28;20056;-69
2022/04/14 11:45:27;;;;;;;6.68;4.85;;;18.00;99.90;;;;;;5121563;27;20767;-69
2022/04/14 11:47:59;;;;;;;5.38;3.90;;;18.10;99.90;;;;;;5098198;28;20048;-69
2022/04/14 11:50:27;;;;;;;6.88;4.60;;;18.20;99.90;;;;;;5094227;27;20059;-69
2022/04/14 11:52:57;;;;;;;6.38;4.43;;;17.90;99.90;;;;;;5110407;28;20054;-69
2022/04/14 11:55:38;;;;;;;5.95;3.85;;;17.90;99.90;;;;;;5091045;27;20490;-69
2022/04/14 11:58:09;;;;;;;6.25;4.15;;;18.00;99.90;;;;;;5118869;28;20062;-68
2022/04/14 12:00:44;;;;;;;7.13;4.70;;;17.80;99.90;;;;;;5107943;28;20074;-68
2022/04/14 12:03:10;;;;;;;7.38;4.10;;;17.50;99.90;;;;;;5118273;28;20043;-67
2022/04/14 12:05:36;;;;;;;11.85;4.25;;;17.70;99.90;;;;;;5125950;28;20080;-67
2022/04/14 12:08:12;;;;;;;6.30;4.00;;;17.80;99.90;;;;;;5118172;28;20086;-68
2022/04/14 12:10:37;;;;;;;10.55;5.22;;;17.90;99.90;;;;;;5108427;28;20051;-68
2022/04/14 12:13:07;;;;;;;7.38;4.13;;;17.80;99.90;;;;;;5117591;28;20042;-69
2022/04/14 12:15:33;;;;;;;;;;;17.70;99.90;;;;;;5091792;28;20051;-68
2022/04/14 12:18:10;;;;;;;8.85;4.03;;;17.60;99.90;;;;;;5119870;28;19964;-67
2022/04/14 12:20:43;;;;;;;4.38;2.92;;;17.70;99.90;;;;;;5100196;28;20052;-68
2022/04/14 12:23:10;;;;;;;5.40;2.92;;;17.70;99.90;;;;;;5098166;28;20036;-68
2022/04/14 12:25:37;;;;;;;4.80;2.65;;;17.50;99.90;;;;;;5115735;28;20055;-68
2022/04/14 12:28:04;;;;;;;6.97;3.40;;;17.50;99.90;;;;;;5135426;27;20070;-68
2022/04/14 12:30:30;;;;;;;5.53;3.00;;;17.50;99.90;;;;;;5110597;27;20099;-68
2022/04/14 12:33:01;;;;;;;3.67;2.70;;;17.30;99.90;;;;;;5133858;27;20111;-68
2022/04/14 12:35:43;;;;;;;5.50;3.15;;;17.30;99.90;;;;;;5132350;27;20054;-69
2022/04/14 12:38:21;;;;;;;6.32;2.63;;;17.60;99.90;;;;;;5113881;28;20052;-68